createdAt,value
2024-05-09T00:08:43.961Z,758.00
2024-05-09T00:23:44.221Z,763.00
2024-05-09T00:38:44.948Z,766.00
2024-05-09T00:53:45.786Z,760.00
2024-05-09T01:08:46.062Z,761.00
2024-05-09T01:23:48.718Z,769.00
2024-05-09T01:38:47.248Z,766.00
2024-05-09T01:53:48.479Z,770.00
2024-05-09T02:08:48.661Z,773.00
2024-05-09T02:23:49.509Z,774.00
2024-05-09T02:38:49.808Z,775.00
2024-05-09T02:53:52.673Z,767.00
2024-05-09T03:08:51.260Z,762.00
2024-05-09T03:23:52.031Z,765.00
2024-05-09T03:38:52.692Z,769.00
2024-05-09T03:53:53.434Z,775.00
2024-05-09T04:08:54.149Z,769.00
2024-05-09T04:23:54.888Z,771.00
2024-05-09T04:38:55.533Z,764.00
2024-05-09T04:53:56.311Z,763.00
2024-05-09T05:08:57.032Z,773.00
2024-05-09T05:23:57.965Z,760.00
2024-05-09T05:38:58.212Z,769.00
2024-05-09T05:53:58.838Z,762.00
2024-05-09T06:08:59.578Z,764.00
2024-05-09T06:24:02.614Z,768.00
2024-05-09T06:39:00.596Z,764.00
2024-05-09T06:54:01.295Z,766.00
2024-05-09T07:24:50.156Z,794.00
2024-05-09T07:39:50.840Z,777.00
2024-05-09T07:54:51.407Z,782.00
2024-05-09T08:09:52.106Z,769.00
2024-05-09T08:24:53.555Z,781.00
2024-05-09T08:39:54.344Z,779.00
2024-05-09T08:54:54.574Z,778.00
2024-05-09T09:09:56.537Z,783.00
2024-05-09T09:24:55.017Z,793.00
2024-05-09T09:39:56.473Z,784.00
2024-05-09T09:54:55.940Z,782.00
2024-05-09T10:09:57.184Z,784.00
2024-05-09T10:24:57.363Z,788.00
2024-05-09T10:39:57.971Z,786.00
